Nearby METAR Reports

 

KISP - Islip, New York, USA
Distance from station: SW 4mi, 6km
Updated: Sun, 01/21/2018 8:56 am EST
Overcast
Overcast
 Wind from calm
Wind: Calm
Temperature: 41°F , 5°C
Dew Point: 32°F , 0°C
Humidity: 70%
Barometer: 30.16 inHg , 1021.3 hPa
Clouds: Overcast
Visibility: 10 miles , 16 km
Cloud details: Overcast 25000 ft
2018/01/21 13:56 KISP 211356Z 00000KT 10SM OVC250 05/00 A3016 RMK AO2 SLP214 T00500000 $
KHWV - Shirley, New York, USA
Distance from station: E 10mi, 16km
Updated: Sun, 01/21/2018 8:56 am EST
Clear
Clear
 Wind from calm
Wind: Calm
Temperature: 39°F , 4°C
Dew Point: 34°F , 1°C
Humidity: 81%
Barometer: 30.17 inHg , 1021.7 hPa
Clouds: Clear
Visibility: 10 miles , 16 km
2018/01/21 13:56 KHWV 211356Z AUTO 00000KT 10SM CLR 04/01 A3017 RMK AO2 SLP217 T00390006 $
 
KFRG - Farmingdale, New York, USA
Distance from station: WSW 20mi, 33km
Updated: Sun, 01/21/2018 8:53 am EST
Clear
Clear
 Wind from calm
Wind: Calm
Temperature: 37°F , 3°C
Dew Point: 32°F , 0°C
Humidity: 81%
Barometer: 30.17 inHg , 1021.7 hPa
Clouds: Clear
Visibility: 10 miles , 16 km
2018/01/21 13:53 KFRG 211353Z 00000KT 10SM CLR 03/00 A3017 RMK AO2 SLP216 T00330000
KBDR - Bridgeport, Connecticut, USA
Distance from station: N 23mi, 37km
Updated: Sun, 01/21/2018 8:52 am EST
Clear
Clear
 Wind from calm
Wind: Calm
Temperature: 36°F , 2°C
Dew Point: 28°F , -2°C
Humidity: 75%
Barometer: 30.18 inHg , 1022 hPa
Clouds: Clear
Visibility: 10 miles , 16 km
2018/01/21 13:52 KBDR 211352Z 00000KT 10SM CLR 02/M02 A3018 RMK AO2 SLP218 T00171017
 
KFOK - Westhampton Beac, New York, USA
Distance from station: E 23mi, 37km
Updated: Sun, 01/21/2018 8:53 am EST
Clear
Clear
 Wind from calm
Wind: Calm
Temperature: 36°F , 2°C
Dew Point: 30°F , -1°C
Humidity: 81%
Barometer: 30.18 inHg , 1022 hPa
Clouds: Clear
Visibility: 10 miles , 16 km
2018/01/21 13:53 KFOK 211353Z 00000KT 10SM CLR 02/M01 A3018 RMK AO2 SLP222 T00221006
KHVN - New Haven/Tweed, Connecticut, USA
Distance from station: NNE 31mi, 50km
Updated: Sun, 01/21/2018 8:53 am EST
Mostly cloudy
Mostly cloudy
 Wind from calm
Wind: Calm
Temperature: 32°F , 0°C
Dew Point: 30°F , -1°C
Humidity: 93%
Barometer: 30.17 inHg , 1021.7 hPa
Clouds: Mostly cloudy
Visibility: 10 miles , 16 km
Cloud details: Mostly cloudy 25000 ft
2018/01/21 13:53 KHVN 211353Z 00000KT 10SM BKN250 00/M01 A3017 RMK AO2 SLP216 T00001011
 
KHPN - White Plains, New York, USA
Distance from station: WNW 37mi, 60km
Updated: Sun, 01/21/2018 8:56 am EST
Clear
Clear
 Wind from NW
Wind: NW 6 mph , 9 km/h
Temperature: 34°F , 1°C
Wind Chill: 29°F , -2°C
Dew Point: 30°F , -1°C
Humidity: 87%
Barometer: 30.15 inHg , 1021 hPa
Clouds: Clear
Visibility: 10 miles , 16 km
2018/01/21 13:56 KHPN 211356Z 31005KT 10SM CLR 01/M01 A3015 RMK AO2 SLP215 T00061011
KJFK - Nyc/Jfk Arpt, New York, USA
Distance from station: WSW 40mi, 64km
Updated: Sun, 01/21/2018 8:51 am EST
Mostly cloudy
Mostly cloudy
 Wind from WSW
Wind: WSW 7 mph , 11 km/h
Temperature: 39°F , 4°C
Wind Chill: 34°F , 1°C
Dew Point: 32°F , 0°C
Humidity: 75%
Barometer: 30.18 inHg , 1022 hPa
Clouds: Mostly cloudy
Visibility: 10 miles , 16 km
Cloud details: Mostly cloudy 25000 ft
2018/01/21 13:51 KJFK 211351Z 25006KT 10SM BKN250 04/00 A3018 RMK AO2 SLP219 T00440000
 
KDXR - Danbury, Connecticut, USA
Distance from station: NNW 42mi, 68km
Updated: Sun, 01/21/2018 8:53 am EST
Clear
Clear
 Wind from calm
Wind: Calm
Temperature: 27°F , -3°C
Dew Point: 25°F , -4°C
Humidity: 93%
Barometer: 30.17 inHg , 1021.7 hPa
Clouds: Clear
Visibility: 9 miles , 14 km
2018/01/21 13:53 KDXR 211353Z 00000KT 9SM CLR M03/M04 A3017 RMK AO2 SLP222 T10281044 $
KHTO - East Hampton, New York, USA
Distance from station: E 43mi, 69km
Updated: Sun, 01/21/2018 9:15 am EST
Clear
Clear
 Wind from NNW
Wind: NNW 6 mph , 9 km/h
Temperature: 43°F , 6°C
Wind Chill: 39°F , 4°C
Dew Point: 28°F , -2°C
Humidity: 57%
Barometer: 30.17 inHg , 1021.7 hPa
Clouds: Clear
Visibility: 10 miles , 16 km
2018/01/21 14:15 KHTO 211415Z AUTO 33005KT 10SM CLR 06/M02 A3017 RMK AO2 T00551018
 
KOXC - Oxford/Waterbury, Connecticut, USA
Distance from station: N 43mi, 70km
Updated: Sun, 01/21/2018 8:51 am EST
Clear
Clear
 Wind from calm
Wind: Calm
Temperature: 32°F , 0°C
Dew Point: 27°F , -3°C
Humidity: 80%
Barometer: 30.16 inHg , 1021.3 hPa
Clouds: Clear
Visibility: 10 miles , 16 km
2018/01/21 13:51 KOXC 211351Z 00000KT 10SM CLR 00/M03 A3016 RMK AO2 SLP232 T00001028
KLGA - Nyc/La Guardia, New York, USA
Distance from station: W 44mi, 70km
Updated: Sun, 01/21/2018 8:51 am EST
Mostly cloudy
Mostly cloudy
 Wind from NW
Wind: NW 7 mph , 11 km/h
Temperature: 45°F , 7°C
Wind Chill: 41°F , 5°C
Dew Point: 28°F , -2°C
Humidity: 53%
Barometer: 30.16 inHg , 1021.3 hPa
Clouds: Mostly cloudy
Visibility: 10 miles , 16 km
Cloud details: Partly cloudy 20000 ft
Mostly cloudy 25000 ft
2018/01/21 13:51 KLGA 211351Z 31006KT 10SM SCT200 BKN250 07/M02 A3016 RMK AO2 SLP214 T00671017
 
KSNC - Chester, Connecticut, USA
Distance from station: NE 47mi, 76km
Updated: Sun, 01/21/2018 9:15 am EST
Clear
Clear
 Wind from calm
Wind: Calm
Temperature: 39°F , 4°C
Dew Point: 28°F , -2°C
Humidity: 65%
Barometer: 30.16 inHg , 1021.3 hPa
Clouds: Clear
Visibility: 10 miles , 16 km
2018/01/21 14:15 KSNC 211415Z AUTO 00000KT 10SM CLR 04/M02 A3016 RMK AO2
KMMK - Meriden, Connecticut, USA
Distance from station: NNE 48mi, 77km
Updated: Sun, 01/21/2018 8:53 am EST
Clear
Clear
 Wind from calm
Wind: Calm
Temperature: 28°F , -2°C
Dew Point: 27°F , -3°C
Humidity: 93%
Barometer: 30.17 inHg , 1021.7 hPa
Clouds: Clear
Visibility: 8 miles , 13 km
2018/01/21 13:53 KMMK 211353Z AUTO 00000KT 8SM CLR M02/M03 A3017 RMK AO2 SLP219 I1000 T10171028
 
KNYC - Nyc/Central Park, New York, USA
Distance from station: W 48mi, 77km
Updated: Sun, 01/21/2018 8:51 am EST
Clear
Clear
 
Temperature: 45°F , 7°C
Dew Point: 28°F , -2°C
Humidity: 53%
Barometer: 30.19 inHg , 1022.4 hPa
Clouds: Clear
Visibility: 10 miles , 16 km
2018/01/21 13:51 KNYC 211351Z AUTO 10SM CLR 07/M02 A3019 RMK AO2 SLP213 T00721022 $